»·PEaware :: DAL1982 CYZP-PAJN

DAL1982 :: CYZP-PAJN

FLIGHT INFORMATION

Flight Status: Arrived
Operator:
Delta Air Lines
More flights by this operator :: More flights under this callsign
Pilot: Alan S. (10569)
Aircraft: BOEING 737-300
(B733)
More flights by this aircraft type
Origin: CYZP Sandspit
Canada
Destination: PAJN Juneau Intl
United States
More flights between these airports :: More routes between these airports
Route: ANN J502 SSR
File this flight plan on PilotEdge
Remarks: twitch.tv / aerosimgaming
Altitude:
(Current/Filed)
26,000ft
Speed:
(Current/Filed)
480kts
Departed: 23-Aug-16 11:00 PM
Arrived: 23-Aug-16 11:59 PM
Distance/Time
Traveled:
320nm/0:59
Distance/Time
To Go:
Arrived

Flight Plot

Page will automatically refresh every two minutes.


Map Options




Map Legend


Flown Route
Filed Route
Departure Airport
Arrival Airport
Navaid (VOR, NDB)
Fix

Horizontal Profiles

Position Reports

Time Latitude Longitude Heading Altitude Ground
Speed
23-Aug-16 22:52 53.253025 -131.816177 323 27ft 0kts
23-Aug-16 22:53 53.253394 -131.816107 33 27ft 6kts
23-Aug-16 22:54 53.253787 -131.813232 143 27ft 11kts
23-Aug-16 22:55 53.250333 -131.809104 144 27ft 16kts
23-Aug-16 22:56 53.248887 -131.807436 74 27ft 1kts
23-Aug-16 22:57 53.249183 -131.807623 321 27ft 0kts
23-Aug-16 22:58 53.276151 -131.841456 323 1731ft 179kts
23-Aug-16 22:59 53.333203 -131.826963 11 3708ft 244kts
23-Aug-16 23:00 53.402632 -131.809952 2 6438ft 263kts
23-Aug-16 23:01 53.477146 -131.799481 1 9314ft 274kts
23-Aug-16 23:02 53.562342 -131.787963 2 10754ft 336kts
23-Aug-16 23:03 53.657152 -131.775174 2 13446ft 349kts
23-Aug-16 23:04 53.755471 -131.761896 2 15937ft 361kts
23-Aug-16 23:05 53.856873 -131.748149 2 18209ft 373kts
23-Aug-16 23:06 53.961683 -131.733862 2 20304ft 385kts
23-Aug-16 23:07 54.069818 -131.719051 2 22192ft 395kts
23-Aug-16 23:08 54.179820 -131.703904 2 23889ft 406kts
23-Aug-16 23:09 54.293678 -131.688139 2 25369ft 418kts
23-Aug-16 23:10 54.390901 -131.674599 3 25507ft 428kts
23-Aug-16 23:11 54.534357 -131.654516 3 25965ft 454kts
23-Aug-16 23:12 54.640403 -131.639569 3 25973ft 463kts
23-Aug-16 23:13 54.789564 -131.618422 3 25972ft 463kts
23-Aug-16 23:14 54.896521 -131.603164 2 25972ft 463kts
23-Aug-16 23:15 55.046154 -131.581734 0 25972ft 465kts
23-Aug-16 23:16 55.138654 -131.651562 321 25971ft 455kts
23-Aug-16 23:17 55.245601 -131.768992 327 25954ft 454kts
23-Aug-16 23:18 55.335864 -131.862829 327 25954ft 454kts
23-Aug-16 23:19 55.444297 -131.976137 327 25953ft 454kts
23-Aug-16 23:20 55.546540 -132.083912 327 25953ft 455kts
23-Aug-16 23:21 55.654128 -132.198655 325 25953ft 454kts
23-Aug-16 23:22 55.760860 -132.315982 327 25976ft 454kts
23-Aug-16 23:23 55.867916 -132.430825 327 26002ft 453kts
23-Aug-16 23:24 55.975263 -132.546677 327 25998ft 453kts
23-Aug-16 23:25 56.082026 -132.662566 327 25999ft 453kts
23-Aug-16 23:26 56.187080 -132.776094 326 25993ft 453kts
23-Aug-16 23:27 56.294571 -132.894363 326 25981ft 453kts
23-Aug-16 23:28 56.401817 -133.013184 326 25963ft 454kts
23-Aug-16 23:29 56.509164 -133.135381 324 25963ft 458kts
23-Aug-16 23:30 56.610035 -133.258124 323 25963ft 460kts
23-Aug-16 23:31 56.713395 -133.386504 323 25962ft 460kts
23-Aug-16 23:32 56.819131 -133.517809 324 25963ft 460kts
23-Aug-16 23:33 56.922575 -133.646012 323 25963ft 460kts
23-Aug-16 23:34 57.027560 -133.775725 323 25981ft 455kts
23-Aug-16 23:35 57.124766 -133.896441 322 26016ft 448kts
23-Aug-16 23:36 57.227707 -134.025161 321 26028ft 449kts
23-Aug-16 23:37 57.325013 -134.147562 321 26011ft 396kts
23-Aug-16 23:38 57.416825 -134.263980 321 25624ft 399kts
23-Aug-16 23:39 57.506338 -134.378039 321 23269ft 379kts
23-Aug-16 23:40 57.592384 -134.488408 321 20740ft 375kts
23-Aug-16 23:41 57.675274 -134.595283 321 18802ft 357kts
23-Aug-16 23:42 57.757023 -134.700056 322 16860ft 351kts
23-Aug-16 23:43 57.836750 -134.802878 321 14997ft 349kts
23-Aug-16 23:44 57.914117 -134.904814 321 13142ft 333kts
23-Aug-16 23:45 57.990245 -135.005856 321 11318ft 339kts
23-Aug-16 23:46 58.065669 -135.106423 321 9658ft 315kts
23-Aug-16 23:47 58.119960 -135.178776 322 8947ft 276kts
23-Aug-16 23:48 58.186249 -135.225968 15 7808ft 270kts
23-Aug-16 23:49 58.221770 -135.104717 78 6226ft 271kts
23-Aug-16 23:50 58.267742 -135.027528 3 5433ft 221kts
23-Aug-16 23:51 58.327328 -135.012647 11 4117ft 209kts
23-Aug-16 23:52 58.359435 -134.947559 88 3558ft 175kts
23-Aug-16 23:53 58.359449 -134.851642 87 2539ft 181kts
23-Aug-16 23:54 58.358968 -134.756902 89 1374ft 168kts
23-Aug-16 23:55 58.358406 -134.670815 85 701ft 159kts
23-Aug-16 23:56 58.356751 -134.589405 101 32ft 148kts
23-Aug-16 23:57 58.352272 -134.556852 104 27ft 4kts
23-Aug-16 23:58 58.353116 -134.554919 284 27ft 13kts
23-Aug-16 23:59 58.353924 -134.560822 283 27ft 9kts
24-Aug-16 00:00 58.359521 -134.792469 87 1748ft 180kts
24-Aug-16 00:01 58.358371 -134.702931 87 974ft 162kts
24-Aug-16 00:02 58.359252 -134.619861 85 300ft 155kts
24-Aug-16 00:03 58.359149 -134.626571 84 343ft 153kts
24-Aug-16 00:04 58.354908 -134.575574 104 27ft 114kts
24-Aug-16 00:05 58.358338 -134.696670 87 943ft 162kts
24-Aug-16 00:06 58.358338 -134.696670 87 943ft 162kts
24-Aug-16 00:07 58.358934 -134.637609 84 394ft 153kts
24-Aug-16 00:08 58.353494 -134.565586 103 27ft 76kts
24-Aug-16 00:09 58.359344 -134.776540 89 1527ft 177kts
24-Aug-16 00:10 58.358317 -134.688771 86 910ft 159kts
24-Aug-16 00:11 58.358905 -134.606133 95 149ft 155kts

Navigation Log

Ident Type
Flight plan parsing failed, navigation log unavailable